sensor_id;sensor_type;location;lat;lon;timestamp;pressure;altitude;pressure_sealevel;temperature;humidity
70229;BME280;57617;51.988;5.854;2023-03-17T00:00:17;100413.63;;;11.35;52.66
70229;BME280;57617;51.988;5.854;2023-03-17T00:02:44;100413.88;;;11.34;52.87
70229;BME280;57617;51.988;5.854;2023-03-17T00:07:45;100416.88;;;11.37;52.49
70229;BME280;57617;51.988;5.854;2023-03-17T00:10:25;100405.47;;;11.35;52.63
70229;BME280;57617;51.988;5.854;2023-03-17T00:12:52;100411.97;;;11.34;52.64
70229;BME280;57617;51.988;5.854;2023-03-17T00:15:18;100417.91;;;11.31;52.45
70229;BME280;57617;51.988;5.854;2023-03-17T00:17:45;100419.25;;;11.29;52.65
70229;BME280;57617;51.988;5.854;2023-03-17T00:20:31;100424.69;;;11.29;52.67
70229;BME280;57617;51.988;5.854;2023-03-17T00:22:58;100426.84;;;11.27;52.67
70229;BME280;57617;51.988;5.854;2023-03-17T00:25:30;100406.66;;;11.23;52.66
70229;BME280;57617;51.988;5.854;2023-03-17T00:27:57;100392.72;;;11.14;52.85
70229;BME280;57617;51.988;5.854;2023-03-17T00:30:23;100407.16;;;11.20;52.85
70229;BME280;57617;51.988;5.854;2023-03-17T00:32:54;100394.91;;;11.17;52.71
70229;BME280;57617;51.988;5.854;2023-03-17T00:35:23;100387.28;;;11.14;52.94
70229;BME280;57617;51.988;5.854;2023-03-17T00:37:54;100398.47;;;11.18;52.98
70229;BME280;57617;51.988;5.854;2023-03-17T00:40:27;100391.63;;;11.15;53.23
70229;BME280;57617;51.988;5.854;2023-03-17T00:42:54;100390.00;;;11.14;52.95
70229;BME280;57617;51.988;5.854;2023-03-17T00:45:20;100388.09;;;11.15;52.82
70229;BME280;57617;51.988;5.854;2023-03-17T00:47:48;100376.59;;;11.08;53.15
70229;BME280;57617;51.988;5.854;2023-03-17T00:50:22;100383.19;;;11.12;53.26
70229;BME280;57617;51.988;5.854;2023-03-17T00:52:49;100380.47;;;11.12;52.88
70229;BME280;57617;51.988;5.854;2023-03-17T00:55:16;100372.50;;;11.05;52.92
70229;BME280;57617;51.988;5.854;2023-03-17T00:57:42;100389.63;;;11.06;52.91
70229;BME280;57617;51.988;5.854;2023-03-17T01:00:28;100392.59;;;11.04;53.17
70229;BME280;57617;51.988;5.854;2023-03-17T01:02:55;100385.00;;;11.06;53.06
70229;BME280;57617;51.988;5.854;2023-03-17T01:05:23;100388.81;;;11.05;52.86
70229;BME280;57617;51.988;5.854;2023-03-17T01:07:51;100384.19;;;11.06;52.90
70229;BME280;57617;51.988;5.854;2023-03-17T01:10:27;100379.00;;;11.04;53.15
70229;BME280;57617;51.988;5.854;2023-03-17T01:12:54;100377.94;;;11.05;52.97
70229;BME280;57617;51.988;5.854;2023-03-17T01:15:22;100365.41;;;11.04;52.88
70229;BME280;57617;51.988;5.854;2023-03-17T01:17:49;100369.22;;;11.03;52.90
70229;BME280;57617;51.988;5.854;2023-03-17T01:20:21;100362.66;;;10.99;52.80
70229;BME280;57617;51.988;5.854;2023-03-17T01:22:47;100364.03;;;11.02;53.21
70229;BME280;57617;51.988;5.854;2023-03-17T01:25:13;100359.69;;;11.01;52.99
70229;BME280;57617;51.988;5.854;2023-03-17T01:27:39;100365.41;;;11.04;52.97
70229;BME280;57617;51.988;5.854;2023-03-17T01:30:09;100360.00;;;11.04;53.04
70229;BME280;57617;51.988;5.854;2023-03-17T01:32:41;100369.22;;;11.03;53.00
70229;BME280;57617;51.988;5.854;2023-03-17T01:35:07;100370.31;;;11.07;52.83
70229;BME280;57617;51.988;5.854;2023-03-17T01:37:32;100368.94;;;11.05;52.91
70229;BME280;57617;51.988;5.854;2023-03-17T01:39:57;100345.25;;;11.00;52.88
70229;BME280;57617;51.988;5.854;2023-03-17T01:42:23;100351.78;;;10.99;53.20
70229;BME280;57617;51.988;5.854;2023-03-17T01:45:06;100358.84;;;11.00;53.21
70229;BME280;57617;51.988;5.854;2023-03-17T01:47:32;100355.00;;;10.96;52.90
70229;BME280;57617;51.988;5.854;2023-03-17T01:50:07;100347.66;;;10.97;52.80
70229;BME280;57617;51.988;5.854;2023-03-17T01:52:37;100347.91;;;10.95;53.04
70229;BME280;57617;51.988;5.854;2023-03-17T01:55:08;100345.19;;;10.95;53.15
70229;BME280;57617;51.988;5.854;2023-03-17T01:57:50;100343.88;;;10.98;52.92
70229;BME280;57617;51.988;5.854;2023-03-17T02:00:22;100309.88;;;10.74;52.95
70229;BME280;57617;51.988;5.854;2023-03-17T02:02:52;100342.47;;;10.95;52.97
70229;BME280;57617;51.988;5.854;2023-03-17T02:05:23;100343.81;;;10.93;53.06
70229;BME280;57617;51.988;5.854;2023-03-17T02:07:51;100344.66;;;10.93;53.01
70229;BME280;57617;51.988;5.854;2023-03-17T02:10:18;100337.53;;;10.92;52.82
70229;BME280;57617;51.988;5.854;2023-03-17T02:12:46;100324.44;;;10.84;52.88
70229;BME280;57617;51.988;5.854;2023-03-17T02:15:13;100320.06;;;10.83;53.12
70229;BME280;57617;51.988;5.854;2023-03-17T02:17:38;100327.16;;;10.84;53.29
70229;BME280;57617;51.988;5.854;2023-03-17T02:22:48;100317.03;;;10.80;53.33
70229;BME280;57617;51.988;5.854;2023-03-17T02:25:14;100323.53;;;10.79;53.23
70229;BME280;57617;51.988;5.854;2023-03-17T02:27:44;100314.53;;;10.73;53.09
70229;BME280;57617;51.988;5.854;2023-03-17T02:30:18;100302.47;;;10.64;53.52
70229;BME280;57617;51.988;5.854;2023-03-17T02:32:43;100320.94;;;10.67;53.57
70229;BME280;57617;51.988;5.854;2023-03-17T02:35:09;100313.38;;;10.69;53.49
70229;BME280;57617;51.988;5.854;2023-03-17T02:37:34;100320.69;;;10.69;53.39
70229;BME280;57617;51.988;5.854;2023-03-17T02:40:00;100312.31;;;10.70;53.24
70229;BME280;57617;51.988;5.854;2023-03-17T02:42:27;100311.22;;;10.71;53.34
70229;BME280;57617;51.988;5.854;2023-03-17T02:44:53;100310.97;;;10.73;53.35
70229;BME280;57617;51.988;5.854;2023-03-17T02:47:19;100311.53;;;10.75;53.51
70229;BME280;57617;51.988;5.854;2023-03-17T02:49:45;100305.78;;;10.71;53.25
70229;BME280;57617;51.988;5.854;2023-03-17T02:52:11;100306.63;;;10.72;53.30
70229;BME280;57617;51.988;5.854;2023-03-17T02:54:37;100301.94;;;10.67;53.28
70229;BME280;57617;51.988;5.854;2023-03-17T02:57:03;100307.06;;;10.64;53.29
70229;BME280;57617;51.988;5.854;2023-03-17T02:59:28;100301.38;;;10.65;53.31
70229;BME280;57617;51.988;5.854;2023-03-17T03:01:53;100295.16;;;10.65;53.52
70229;BME280;57617;51.988;5.854;2023-03-17T03:04:20;100297.03;;;10.64;53.55
70229;BME280;57617;51.988;5.854;2023-03-17T03:06:46;100308.13;;;10.63;53.50
70229;BME280;57617;51.988;5.854;2023-03-17T03:09:13;100301.63;;;10.64;53.72
70229;BME280;57617;51.988;5.854;2023-03-17T03:11:38;100306.81;;;10.65;53.65
70229;BME280;57617;51.988;5.854;2023-03-17T03:14:05;100311.44;;;10.65;53.58
70229;BME280;57617;51.988;5.854;2023-03-17T03:16:32;100314.97;;;10.65;53.62
70229;BME280;57617;51.988;5.854;2023-03-17T03:18:58;100314.97;;;10.65;53.51
70229;BME280;57617;51.988;5.854;2023-03-17T03:21:23;100304.66;;;10.67;53.52
70229;BME280;57617;51.988;5.854;2023-03-17T03:23:49;100291.59;;;10.64;53.47
70229;BME280;57617;51.988;5.854;2023-03-17T03:26:14;100287.75;;;10.60;53.79
70229;BME280;57617;51.988;5.854;2023-03-17T03:28:40;100297.59;;;10.66;53.52
70229;BME280;57617;51.988;5.854;2023-03-17T03:31:06;100298.97;;;10.69;53.65
70229;BME280;57617;51.988;5.854;2023-03-17T03:33:31;100305.22;;;10.69;53.65
70229;BME280;57617;51.988;5.854;2023-03-17T03:35:57;100309.59;;;10.70;53.59
70229;BME280;57617;51.988;5.854;2023-03-17T03:38:24;100306.03;;;10.70;53.54
70229;BME280;57617;51.988;5.854;2023-03-17T03:40:50;100305.28;;;10.74;53.50
70229;BME280;57617;51.988;5.854;2023-03-17T03:43:15;100318.09;;;10.79;53.28
70229;BME280;57617;51.988;5.854;2023-03-17T03:45:40;100315.56;;;10.72;53.40
70229;BME280;57617;51.988;5.854;2023-03-17T03:48:06;100315.31;;;10.74;53.44
70229;BME280;57617;51.988;5.854;2023-03-17T03:50:32;100313.19;;;10.76;53.47
70229;BME280;57617;51.988;5.854;2023-03-17T03:52:57;100310.72;;;10.74;53.59
70229;BME280;57617;51.988;5.854;2023-03-17T03:55:22;100309.16;;;10.78;53.67
70229;BME280;57617;51.988;5.854;2023-03-17T03:57:48;100307.75;;;10.76;53.63
70229;BME280;57617;51.988;5.854;2023-03-17T04:00:13;100311.88;;;10.78;53.58
70229;BME280;57617;51.988;5.854;2023-03-17T04:02:40;100306.69;;;10.77;53.57
70229;BME280;57617;51.988;5.854;2023-03-17T04:05:06;100300.66;;;10.75;53.59
70229;BME280;57617;51.988;5.854;2023-03-17T04:07:34;100296.56;;;10.72;53.40
70229;BME280;57617;51.988;5.854;2023-03-17T04:09:59;100302.81;;;10.73;53.60
70229;BME280;57617;51.988;5.854;2023-03-17T04:12:25;100321.00;;;10.72;53.55
70229;BME280;57617;51.988;5.854;2023-03-17T04:14:50;100318.28;;;10.72;53.64
70229;BME280;57617;51.988;5.854;2023-03-17T04:17:15;100322.66;;;10.73;53.47
70229;BME280;57617;51.988;5.854;2023-03-17T04:19:41;100315.56;;;10.72;53.43
70229;BME280;57617;51.988;5.854;2023-03-17T04:22:06;100321.28;;;10.71;53.38
70229;BME280;57617;51.988;5.854;2023-03-17T04:24:33;100317.66;;;10.65;53.88
70229;BME280;57617;51.988;5.854;2023-03-17T04:26:59;100329.94;;;10.68;53.79
70229;BME280;57617;51.988;5.854;2023-03-17T04:29:25;100335.91;;;10.70;53.64
70229;BME280;57617;51.988;5.854;2023-03-17T04:31:50;100331.06;;;10.72;54.18
70229;BME280;57617;51.988;5.854;2023-03-17T04:34:17;100317.50;;;10.72;53.64
70229;BME280;57617;51.988;5.854;2023-03-17T04:36:43;100313.88;;;10.66;53.64
70229;BME280;57617;51.988;5.854;2023-03-17T04:39:09;100317.13;;;10.63;53.70
70229;BME280;57617;51.988;5.854;2023-03-17T04:41:34;100312.44;;;10.59;53.80
70229;BME280;57617;51.988;5.854;2023-03-17T04:44:00;100321.66;;;10.58;53.88
70229;BME280;57617;51.988;5.854;2023-03-17T04:46:25;100315.91;;;10.54;53.94
70229;BME280;57617;51.988;5.854;2023-03-17T04:48:51;100307.69;;;10.49;53.98
70229;BME280;57617;51.988;5.854;2023-03-17T04:51:17;100318.06;;;10.52;53.54
70229;BME280;57617;51.988;5.854;2023-03-17T04:53:42;100324.00;;;10.49;53.88
70229;BME280;57617;51.988;5.854;2023-03-17T04:56:09;100324.25;;;10.48;53.95
70229;BME280;57617;51.988;5.854;2023-03-17T04:58:34;100329.09;;;10.46;53.94
70229;BME280;57617;51.988;5.854;2023-03-17T05:01:00;100331.22;;;10.44;53.75
70229;BME280;57617;51.988;5.854;2023-03-17T05:03:26;100329.59;;;10.43;53.98
70229;BME280;57617;51.988;5.854;2023-03-17T05:05:52;100323.63;;;10.41;53.92
70229;BME280;57617;51.988;5.854;2023-03-17T05:08:18;100328.78;;;10.42;53.92
70229;BME280;57617;51.988;5.854;2023-03-17T05:10:44;100342.63;;;10.41;54.19
70229;BME280;57617;51.988;5.854;2023-03-17T05:13:09;100330.13;;;10.40;53.96
70229;BME280;57617;51.988;5.854;2023-03-17T05:15:34;100335.19;;;10.36;54.11
70229;BME280;57617;51.988;5.854;2023-03-17T05:18:00;100336.03;;;10.37;54.50
70229;BME280;57617;51.988;5.854;2023-03-17T05:20:26;100330.06;;;10.35;53.89
70229;BME280;57617;51.988;5.854;2023-03-17T05:22:51;100335.97;;;10.32;54.05
70229;BME280;57617;51.988;5.854;2023-03-17T05:25:17;100334.88;;;10.33;54.41
70229;BME280;57617;51.988;5.854;2023-03-17T05:27:43;100327.56;;;10.33;54.37
70229;BME280;57617;51.988;5.854;2023-03-17T05:30:09;100320.00;;;10.35;54.09
70229;BME280;57617;51.988;5.854;2023-03-17T05:32:34;100313.19;;;10.33;54.26
70229;BME280;57617;51.988;5.854;2023-03-17T05:35:00;100311.78;;;10.30;54.28
70229;BME280;57617;51.988;5.854;2023-03-17T05:37:26;100310.06;;;10.24;54.40
70229;BME280;57617;51.988;5.854;2023-03-17T05:39:51;100319.13;;;10.30;53.87
70229;BME280;57617;51.988;5.854;2023-03-17T05:42:18;100314.75;;;10.29;54.63
70229;BME280;57617;51.988;5.854;2023-03-17T05:44:43;100316.66;;;10.28;54.31
70229;BME280;57617;51.988;5.854;2023-03-17T05:47:08;100316.34;;;10.25;54.42
70229;BME280;57617;51.988;5.854;2023-03-17T05:49:33;100315.50;;;10.24;54.17
70229;BME280;57617;51.988;5.854;2023-03-17T05:51:59;100319.53;;;10.22;54.58
70229;BME280;57617;51.988;5.854;2023-03-17T05:54:24;100312.22;;;10.22;54.86
70229;BME280;57617;51.988;5.854;2023-03-17T05:56:50;100305.91;;;10.17;54.35
70229;BME280;57617;51.988;5.854;2023-03-17T05:59:15;100302.69;;;10.20;54.58
70229;BME280;57617;51.988;5.854;2023-03-17T06:01:42;100303.44;;;10.15;54.39
70229;BME280;57617;51.988;5.854;2023-03-17T06:04:08;100302.69;;;10.20;54.74
70229;BME280;57617;51.988;5.854;2023-03-17T06:06:33;100304.09;;;10.22;54.65
70229;BME280;57617;51.988;5.854;2023-03-17T06:08:59;100307.13;;;10.26;54.44
70229;BME280;57617;51.988;5.854;2023-03-17T06:11:25;100305.78;;;10.28;54.66
70229;BME280;57617;51.988;5.854;2023-03-17T06:13:51;100309.06;;;10.30;54.76
70229;BME280;57617;51.988;5.854;2023-03-17T06:16:16;100300.69;;;10.32;54.62
70229;BME280;57617;51.988;5.854;2023-03-17T06:18:42;100300.69;;;10.32;54.46
70229;BME280;57617;51.988;5.854;2023-03-17T06:21:07;100306.09;;;10.32;54.60
70229;BME280;57617;51.988;5.854;2023-03-17T06:23:32;100301.16;;;10.29;54.49
70229;BME280;57617;51.988;5.854;2023-03-17T06:25:58;100303.88;;;10.29;54.84
70229;BME280;57617;51.988;5.854;2023-03-17T06:28:23;100297.91;;;10.27;54.44
70229;BME280;57617;51.988;5.854;2023-03-17T06:30:49;100302.00;;;10.29;54.59
70229;BME280;57617;51.988;5.854;2023-03-17T06:33:14;100297.91;;;10.27;54.88
70229;BME280;57617;51.988;5.854;2023-03-17T06:35:42;100302.00;;;10.29;54.85
70229;BME280;57617;51.988;5.854;2023-03-17T06:38:07;100296.56;;;10.29;54.77
70229;BME280;57617;51.988;5.854;2023-03-17T06:40:33;100298.72;;;10.27;54.63
70229;BME280;57617;51.988;5.854;2023-03-17T06:42:58;100300.06;;;10.25;55.04
70229;BME280;57617;51.988;5.854;2023-03-17T06:45:24;100312.38;;;10.32;54.87
70229;BME280;57617;51.988;5.854;2023-03-17T06:47:49;100314.81;;;10.34;54.54
70229;BME280;57617;51.988;5.854;2023-03-17T06:50:15;100316.47;;;10.35;54.98
70229;BME280;57617;51.988;5.854;2023-03-17T06:52:40;100313.47;;;10.36;54.96
70229;BME280;57617;51.988;5.854;2023-03-17T06:55:07;100311.91;;;10.40;54.77
70229;BME280;57617;51.988;5.854;2023-03-17T06:57:33;100310.34;;;10.44;55.03
70229;BME280;57617;51.988;5.854;2023-03-17T06:59:58;100308.19;;;10.46;54.90
70229;BME280;57617;51.988;5.854;2023-03-17T07:02:24;100309.09;;;10.52;54.87
70229;BME280;57617;51.988;5.854;2023-03-17T07:04:49;100307.81;;;10.59;54.73
70229;BME280;57617;51.988;5.854;2023-03-17T07:07:16;100304.94;;;10.66;54.64
70229;BME280;57617;51.988;5.854;2023-03-17T07:09:41;100306.31;;;10.68;54.68
70229;BME280;57617;51.988;5.854;2023-03-17T07:12:06;100304.22;;;10.75;54.54
70229;BME280;57617;51.988;5.854;2023-03-17T07:14:34;100303.25;;;10.86;54.53
70229;BME280;57617;51.988;5.854;2023-03-17T07:17:01;100280.25;;;10.72;54.37
70229;BME280;57617;51.988;5.854;2023-03-17T07:19:27;100304.44;;;10.95;54.29
70229;BME280;57617;51.988;5.854;2023-03-17T07:21:53;100309.16;;;11.05;54.35
70229;BME280;57617;51.988;5.854;2023-03-17T07:24:22;100308.41;;;11.09;54.45
70229;BME280;57617;51.988;5.854;2023-03-17T07:26:48;100312.22;;;11.13;54.26
70229;BME280;57617;51.988;5.854;2023-03-17T07:29:14;100327.25;;;11.21;54.34
70229;BME280;57617;51.988;5.854;2023-03-17T07:31:39;100318.34;;;11.25;54.12
70229;BME280;57617;51.988;5.854;2023-03-17T07:34:04;100313.75;;;11.31;53.56
70229;BME280;57617;51.988;5.854;2023-03-17T07:36:31;100313.00;;;11.35;54.32
70229;BME280;57617;51.988;5.854;2023-03-17T07:38:57;100313.59;;;11.42;53.92
70229;BME280;57617;51.988;5.854;2023-03-17T07:41:22;100311.22;;;11.51;54.14
70229;BME280;57617;51.988;5.854;2023-03-17T07:43:47;100319.19;;;11.57;54.02
70229;BME280;57617;51.988;5.854;2023-03-17T07:46:13;100312.72;;;11.63;53.52
70229;BME280;57617;51.988;5.854;2023-03-17T07:48:39;100317.13;;;11.69;53.53
70229;BME280;57617;51.988;5.854;2023-03-17T07:51:19;100315.53;;;11.73;53.39
70229;BME280;57617;51.988;5.854;2023-03-17T07:53:51;100303.59;;;11.79;53.82
70229;BME280;57617;51.988;5.854;2023-03-17T07:56:17;100301.78;;;11.90;53.76
70229;BME280;57617;51.988;5.854;2023-03-17T07:58:43;100299.63;;;11.92;53.53
70229;BME280;57617;51.988;5.854;2023-03-17T08:01:08;100299.13;;;12.00;53.55
70229;BME280;57617;51.988;5.854;2023-03-17T08:03:34;100293.72;;;12.05;53.19
70229;BME280;57617;51.988;5.854;2023-03-17T08:06:01;100288.81;;;12.07;53.41
70229;BME280;57617;51.988;5.854;2023-03-17T08:08:27;100278.25;;;12.15;53.37
70229;BME280;57617;51.988;5.854;2023-03-17T08:10:57;100270.66;;;12.17;53.06
70229;BME280;57617;51.988;5.854;2023-03-17T08:13:24;100275.03;;;12.23;53.23
70229;BME280;57617;51.988;5.854;2023-03-17T08:15:51;100277.25;;;12.26;53.15
70229;BME280;57617;51.988;5.854;2023-03-17T08:18:17;100275.09;;;12.33;53.16
70229;BME280;57617;51.988;5.854;2023-03-17T08:20:43;100277.88;;;12.43;53.03
70229;BME280;57617;51.988;5.854;2023-03-17T08:23:08;100282.78;;;12.51;53.34
70229;BME280;57617;51.988;5.854;2023-03-17T08:25:33;100286.66;;;12.60;52.87
70229;BME280;57617;51.988;5.854;2023-03-17T08:27:59;100284.22;;;12.64;52.95
70229;BME280;57617;51.988;5.854;2023-03-17T08:30:24;100296.50;;;12.76;52.90
70229;BME280;57617;51.988;5.854;2023-03-17T08:32:50;100298.47;;;12.86;52.90
70229;BME280;57617;51.988;5.854;2023-03-17T08:35:16;100299.56;;;12.95;52.84
70229;BME280;57617;51.988;5.854;2023-03-17T08:37:43;100306.44;;;13.07;52.66
70229;BME280;57617;51.988;5.854;2023-03-17T08:40:15;100305.09;;;13.15;52.09
70229;BME280;57617;51.988;5.854;2023-03-17T08:42:42;100289.59;;;13.25;52.06
70229;BME280;57617;51.988;5.854;2023-03-17T08:45:08;100279.22;;;13.37;51.82
70229;BME280;57617;51.988;5.854;2023-03-17T08:47:35;100292.34;;;13.50;52.12
70229;BME280;57617;51.988;5.854;2023-03-17T08:50:03;100293.97;;;13.61;51.86
70229;BME280;57617;51.988;5.854;2023-03-17T08:52:29;100291.25;;;13.71;51.66
70229;BME280;57617;51.988;5.854;2023-03-17T08:54:55;100294.78;;;13.82;51.19
70229;BME280;57617;51.988;5.854;2023-03-17T08:57:20;100289.31;;;13.92;51.34
70229;BME280;57617;51.988;5.854;2023-03-17T08:59:47;100286.03;;;14.00;51.31
70229;BME280;57617;51.988;5.854;2023-03-17T09:02:12;100284.91;;;14.06;50.83
70229;BME280;57617;51.988;5.854;2023-03-17T09:04:39;100295.28;;;14.14;50.70
70229;BME280;57617;51.988;5.854;2023-03-17T09:07:05;100294.47;;;14.23;49.89
70229;BME280;57617;51.988;5.854;2023-03-17T09:09:32;100289.84;;;14.29;49.64
70229;BME280;57617;51.988;5.854;2023-03-17T09:11:59;100290.06;;;14.37;49.89
70229;BME280;57617;51.988;5.854;2023-03-17T09:14:26;100275.81;;;14.45;49.44
70229;BME280;57617;51.988;5.854;2023-03-17T09:16:51;100274.97;;;14.55;49.25
70229;BME280;57617;51.988;5.854;2023-03-17T09:19:17;100280.94;;;14.67;48.89
70229;BME280;57617;51.988;5.854;2023-03-17T09:21:43;100283.34;;;14.78;48.74
70229;BME280;57617;51.988;5.854;2023-03-17T09:24:09;100274.25;;;14.88;48.70
70229;BME280;57617;51.988;5.854;2023-03-17T09:26:35;100276.94;;;14.98;48.48
70229;BME280;57617;51.988;5.854;2023-03-17T09:29:00;100283.47;;;15.07;48.15
70229;BME280;57617;51.988;5.854;2023-03-17T09:31:26;100278.47;;;15.14;48.13
70229;BME280;57617;51.988;5.854;2023-03-17T09:33:51;100286.09;;;15.22;48.06
70229;BME280;57617;51.988;5.854;2023-03-17T09:36:17;100300.28;;;15.29;47.97
70229;BME280;57617;51.988;5.854;2023-03-17T09:38:43;100295.03;;;15.32;47.66
70229;BME280;57617;51.988;5.854;2023-03-17T09:44:10;100282.47;;;15.36;46.60
70229;BME280;57617;51.988;5.854;2023-03-17T09:46:57;100285.16;;;15.41;46.54
70229;BME280;57617;51.988;5.854;2023-03-17T09:51:58;100292.81;;;15.44;47.18
70229;BME280;57617;51.988;5.854;2023-03-17T09:54:32;100295.22;;;15.51;46.69
70229;BME280;57617;51.988;5.854;2023-03-17T09:59:50;100290.13;;;15.73;46.95
70229;BME280;57617;51.988;5.854;2023-03-17T10:02:26;100280.66;;;15.89;46.70
70229;BME280;57617;51.988;5.854;2023-03-17T10:04:53;100283.53;;;16.02;46.93
70229;BME280;57617;51.988;5.854;2023-03-17T10:07:24;100294.84;;;16.19;46.65
70229;BME280;57617;51.988;5.854;2023-03-17T10:10:00;100294.19;;;16.32;46.69
70229;BME280;57617;51.988;5.854;2023-03-17T10:12:55;100306.63;;;16.48;45.41
70229;BME280;57617;51.988;5.854;2023-03-17T10:15:47;100304.34;;;16.55;45.34
70229;BME280;57617;51.988;5.854;2023-03-17T10:18:15;100297.72;;;16.62;46.27
70229;BME280;57617;51.988;5.854;2023-03-17T10:20:50;100296.22;;;16.69;45.36
70229;BME280;57617;51.988;5.854;2023-03-17T10:23:19;100291.00;;;16.73;45.62
70229;BME280;57617;51.988;5.854;2023-03-17T10:25:45;100279.97;;;16.77;45.81
70229;BME280;57617;51.988;5.854;2023-03-17T10:28:23;100276.63;;;16.80;44.93
70229;BME280;57617;51.988;5.854;2023-03-17T10:30:51;100287.00;;;16.83;45.46
70229;BME280;57617;51.988;5.854;2023-03-17T10:33:17;100287.06;;;16.78;45.25
70229;BME280;57617;51.988;5.854;2023-03-17T10:35:42;100295.88;;;16.75;45.00
70229;BME280;57617;51.988;5.854;2023-03-17T10:38:20;100301.06;;;16.77;45.17
70229;BME280;57617;51.988;5.854;2023-03-17T10:40:54;100317.31;;;16.73;45.34
70229;BME280;57617;51.988;5.854;2023-03-17T10:43:20;100315.63;;;16.77;45.62
70229;BME280;57617;51.988;5.854;2023-03-17T10:46:01;100313.91;;;16.81;45.58
70229;BME280;57617;51.988;5.854;2023-03-17T10:48:35;100310.38;;;16.81;45.47
70229;BME280;57617;51.988;5.854;2023-03-17T10:51:04;100307.34;;;16.83;45.65
70229;BME280;57617;51.988;5.854;2023-03-17T10:53:36;100310.59;;;16.84;45.91
70229;BME280;57617;51.988;5.854;2023-03-17T10:56:13;100313.25;;;16.89;45.68
70229;BME280;57617;51.988;5.854;2023-03-17T10:58:47;100309.13;;;16.92;45.98
70229;BME280;57617;51.988;5.854;2023-03-17T11:01:16;100311.78;;;16.97;45.77
70229;BME280;57617;51.988;5.854;2023-03-17T11:03:45;100307.88;;;17.03;45.76
70229;BME280;57617;51.988;5.854;2023-03-17T11:06:17;100297.09;;;17.06;45.58
70229;BME280;57617;51.988;5.854;2023-03-17T11:08:47;100309.28;;;17.19;45.95
70229;BME280;57617;51.988;5.854;2023-03-17T11:11:28;100301.19;;;17.27;45.29
70229;BME280;57617;51.988;5.854;2023-03-17T11:14:08;100307.16;;;17.34;45.42
70229;BME280;57617;51.988;5.854;2023-03-17T11:16:37;100302.13;;;17.42;45.33
70229;BME280;57617;51.988;5.854;2023-03-17T11:19:09;100304.19;;;17.50;45.46
70229;BME280;57617;51.988;5.854;2023-03-17T11:21:58;100322.16;;;17.61;44.66
70229;BME280;57617;51.988;5.854;2023-03-17T11:24:31;100314.94;;;17.65;45.70
70229;BME280;57617;51.988;5.854;2023-03-17T11:26:59;100329.13;;;17.72;45.40
70229;BME280;57617;51.988;5.854;2023-03-17T11:32:36;100318.63;;;17.73;45.38
70229;BME280;57617;51.988;5.854;2023-03-17T11:40:37;100306.38;;;17.66;45.41
70229;BME280;57617;51.988;5.854;2023-03-17T11:43:22;100308.63;;;17.64;45.13
70229;BME280;57617;51.988;5.854;2023-03-17T11:51:27;100277.22;;;17.70;45.17
70229;BME280;57617;51.988;5.854;2023-03-17T11:59:34;100268.25;;;18.10;45.55
70229;BME280;57617;51.988;5.854;2023-03-17T12:05:03;100273.16;;;18.13;44.49
70229;BME280;57617;51.988;5.854;2023-03-17T12:07:42;100272.94;;;18.09;45.52
70229;BME280;57617;51.988;5.854;2023-03-17T12:10:23;100273.16;;;18.13;45.02
70229;BME280;57617;51.988;5.854;2023-03-17T12:12:56;100267.25;;;18.19;44.99
70229;BME280;57617;51.988;5.854;2023-03-17T12:15:28;100268.25;;;18.23;44.84
70229;BME280;57617;51.988;5.854;2023-03-17T12:17:58;100265.13;;;18.30;44.97
70229;BME280;57617;51.988;5.854;2023-03-17T12:20:32;100266.47;;;18.33;44.73
70229;BME280;57617;51.988;5.854;2023-03-17T12:23:10;100261.38;;;18.40;45.21
70229;BME280;57617;51.988;5.854;2023-03-17T12:25:53;100249.78;;;18.43;44.60
70229;BME280;57617;51.988;5.854;2023-03-17T12:28:32;100261.47;;;18.48;44.73
70229;BME280;57617;51.988;5.854;2023-03-17T12:31:24;100255.28;;;18.56;45.11
70229;BME280;57617;51.988;5.854;2023-03-17T12:34:12;100253.44;;;18.65;44.88
70229;BME280;57617;51.988;5.854;2023-03-17T12:36:43;100250.59;;;18.70;44.82
70229;BME280;57617;51.988;5.854;2023-03-17T12:39:13;100250.16;;;18.77;45.06
70229;BME280;57617;51.988;5.854;2023-03-17T12:47:26;100249.41;;;18.98;44.63
70229;BME280;57617;51.988;5.854;2023-03-17T12:50:08;100247.06;;;19.05;44.46
70229;BME280;57617;51.988;5.854;2023-03-17T12:55:14;100250.00;;;19.09;44.07
70229;BME280;57617;51.988;5.854;2023-03-17T12:57:43;100248.97;;;19.05;44.02
70229;BME280;57617;51.988;5.854;2023-03-17T13:02:50;100244.59;;;19.04;44.08
70229;BME280;57617;51.988;5.854;2023-03-17T13:05:31;100243.78;;;19.03;44.22
70229;BME280;57617;51.988;5.854;2023-03-17T13:08:00;100245.72;;;19.03;43.88
70229;BME280;57617;51.988;5.854;2023-03-17T13:10:42;100239.91;;;19.04;43.80
70229;BME280;57617;51.988;5.854;2023-03-17T13:13:19;100231.97;;;19.03;43.92
70229;BME280;57617;51.988;5.854;2023-03-17T13:15:51;100226.13;;;19.04;43.67
70229;BME280;57617;51.988;5.854;2023-03-17T13:23:33;100224.38;;;19.08;43.87
70229;BME280;57617;51.988;5.854;2023-03-17T13:25:59;100233.53;;;19.17;43.80
70229;BME280;57617;51.988;5.854;2023-03-17T13:28:38;100230.50;;;19.19;43.92
70229;BME280;57617;51.988;5.854;2023-03-17T13:31:31;100218.44;;;19.28;43.19
70229;BME280;57617;51.988;5.854;2023-03-17T13:34:14;100221.91;;;19.34;43.18
70229;BME280;57617;51.988;5.854;2023-03-17T13:42:22;100231.66;;;19.40;43.35
70229;BME280;57617;51.988;5.854;2023-03-17T13:47:39;100218.50;;;19.37;42.37
70229;BME280;57617;51.988;5.854;2023-03-17T13:50:15;100222.69;;;19.34;43.09
70229;BME280;57617;51.988;5.854;2023-03-17T13:52:46;100223.50;;;19.35;43.21
70229;BME280;57617;51.988;5.854;2023-03-17T13:58:15;100221.06;;;19.33;42.87
70229;BME280;57617;51.988;5.854;2023-03-17T14:00:42;100216.06;;;19.35;43.10